Time;durP1;ratioP1;P1;durP2;ratioP2;P2;SDS_P1;SDS_P2;PMS_P1;PMS_P2;Temp;Humidity;BMP_temperature;BMP_pressure;BME280_temperature;BME280_humidity;BME280_pressure;Samples;Min_cycle;Max_cycle;Signal;HPM_P1;HPM_P2
2022/08/29 00:01:35;;;;;;;6.17;1.83;;;;;;;22.45;42.55;100827.94;4890410;29;20690;-67
2022/08/29 00:04:03;;;;;;;10.73;2.50;;;;;;;22.41;42.81;100816.78;4891999;29;20881;-66
2022/08/29 00:06:33;;;;;;;4.13;1.80;;;;;;;22.44;42.74;100820.88;4892233;29;20572;-66
2022/08/29 00:09:00;;;;;;;7.27;2.17;;;;;;;22.43;42.49;100819.22;4892153;29;20213;-66
2022/08/29 00:11:29;;;;;;;5.17;1.70;;;;;;;22.43;42.79;100813.81;4892348;29;20216;-66
2022/08/29 00:13:57;;;;;;;8.00;2.43;;;;;;;22.38;42.95;100816.38;4891188;29;20578;-66
2022/08/29 00:16:25;;;;;;;6.83;2.10;;;;;;;22.37;43.06;100809.31;4892797;29;20209;-66
2022/08/29 00:18:53;;;;;;;6.03;2.30;;;;;;;22.37;42.92;100809.31;4892071;29;20309;-66
2022/08/29 00:21:21;;;;;;;10.27;2.20;;;;;;;22.26;43.23;100809.97;4891781;29;20572;-66
2022/08/29 00:23:49;;;;;;;6.47;2.30;;;;;;;22.26;43.17;100807.28;4892539;29;20304;-67
2022/08/29 00:26:16;;;;;;;5.97;2.00;;;;;;;22.14;43.42;100810.69;4892063;29;21398;-66
2022/08/29 00:28:45;;;;;;;6.23;2.10;;;;;;;22.12;43.45;100815.47;4890988;29;20210;-66
2022/08/29 00:31:13;;;;;;;6.77;2.00;;;;;;;22.09;43.27;100824.00;4892403;29;20218;-66
2022/08/29 00:33:41;;;;;;;8.27;1.87;;;;;;;22.11;43.17;100816.50;4890016;29;20278;-66
2022/08/29 00:36:09;;;;;;;6.10;2.33;;;;;;;22.04;43.25;100821.13;4890259;29;20955;-66
2022/08/29 00:38:38;;;;;;;6.73;2.20;;;;;;;22.06;43.47;100819.03;4889315;29;20213;-66
2022/08/29 00:41:08;;;;;;;7.27;2.20;;;;;;;22.04;43.54;100821.13;4890578;29;20648;-67
2022/08/29 00:43:37;;;;;;;10.67;2.20;;;;;;;22.01;43.58;100820.72;4887956;29;20210;-67
2022/08/29 00:46:29;;;;;;;6.80;2.20;;;;;;;22.04;43.50;100825.69;4888667;29;20225;-66
2022/08/29 00:49:04;;;;;;;4.27;1.80;;;;;;;22.11;43.26;100821.91;4886760;29;20663;-66
2022/08/29 00:51:32;;;;;;;5.37;1.70;;;;;;;22.09;43.46;100823.16;4889109;29;20236;-66
2022/08/29 00:54:03;;;;;;;7.73;2.10;;;;;;;22.08;43.17;100810.69;4891233;29;20209;-66
2022/08/29 00:56:32;;;;;;;10.17;2.20;;;;;;;22.10;43.19;100822.94;4890042;29;20251;-66
2022/08/29 00:59:06;;;;;;;6.70;2.40;;;;;;;22.09;43.24;100824.00;4889746;29;20201;-66
2022/08/29 01:01:35;;;;;;;6.67;2.07;;;;;;;22.02;43.32;100823.19;4893793;29;20210;-66
2022/08/29 01:04:03;;;;;;;4.77;1.63;;;;;;;21.96;43.37;100818.63;4892332;29;20663;-66
2022/08/29 01:06:37;;;;;;;9.20;2.03;;;;;;;21.93;43.38;100815.50;4891456;29;20212;-66
2022/08/29 01:09:06;;;;;;;5.53;2.00;;;;;;;21.91;43.54;100821.13;4888798;29;20206;-66
2022/08/29 01:14:22;;;;;;;4.77;1.50;;;;;;;21.82;43.63;100821.56;4887393;29;20202;-66
2022/08/29 01:16:55;;;;;;;5.83;2.17;;;;;;;21.80;43.60;100819.13;4898472;29;20201;-66
2022/08/29 01:19:39;;;;;;;6.07;1.90;;;;;;;21.78;43.61;100824.72;4890638;29;20217;-66
2022/08/29 01:22:20;;;;;;;12.30;2.43;;;;;;;21.84;43.48;100825.72;4890830;29;20210;-66
2022/08/29 01:24:52;;;;;;;5.30;1.70;;;;;;;21.79;43.48;100830.94;4896737;29;20331;-66
2022/08/29 01:27:22;;;;;;;7.23;2.07;;;;;;;21.72;43.63;100830.94;4889688;29;20217;-66
2022/08/29 01:29:50;;;;;;;9.40;2.13;;;;;;;21.73;43.85;100834.47;4894328;29;20221;-67
2022/08/29 01:32:18;;;;;;;5.60;1.60;;;;;;;21.72;43.65;100835.53;4891495;29;20246;-66
2022/08/29 01:34:46;;;;;;;5.97;1.90;;;;;;;21.67;43.71;100835.34;4889184;29;20277;-66
2022/08/29 01:37:16;;;;;;;7.13;2.20;;;;;;;21.70;43.89;100840.31;4888758;29;20236;-66
2022/08/29 01:39:45;;;;;;;6.57;2.10;;;;;;;21.67;43.64;100836.16;4889884;29;20221;-66
2022/08/29 01:42:16;;;;;;;6.93;2.20;;;;;;;21.65;43.87;100837.41;4890324;29;20221;-66
2022/08/29 01:44:49;;;;;;;4.60;1.60;;;;;;;21.65;44.13;100842.81;4891085;29;20239;-64
2022/08/29 01:47:19;;;;;;;5.50;1.90;;;;;;;21.64;43.65;100841.13;4892339;29;20224;-65
2022/08/29 01:49:47;;;;;;;4.63;1.90;;;;;;;21.57;44.06;100843.03;4897818;29;20217;-65
2022/08/29 01:52:15;;;;;;;5.70;1.90;;;;;;;21.53;44.29;100849.91;4890108;29;20308;-64
2022/08/29 01:54:46;;;;;;;6.50;1.90;;;;;;;21.49;44.44;100845.94;4890849;29;20214;-66
2022/08/29 01:57:16;;;;;;;7.33;1.77;;;;;;;21.43;44.59;100846.81;4890477;29;20217;-65
2022/08/29 01:59:44;;;;;;;6.77;2.10;;;;;;;21.39;44.26;100846.38;4893964;29;20219;-65
2022/08/29 02:02:15;;;;;;;7.20;1.97;;;;;;;21.40;44.41;100854.28;4896536;29;20528;-66
2022/08/29 02:04:44;;;;;;;5.93;1.50;;;;;;;21.36;44.43;100847.66;4899997;29;20210;-65
2022/08/29 02:07:16;;;;;;;4.77;1.60;;;;;;;21.38;44.51;100848.25;4894928;29;20651;-65
2022/08/29 02:09:44;;;;;;;7.90;1.97;;;;;;;21.34;44.37;100854.28;4899877;29;20600;-65
2022/08/29 02:12:15;;;;;;;7.23;1.73;;;;;;;21.28;44.33;100858.66;4893274;29;20268;-65
2022/08/29 02:14:44;;;;;;;6.23;2.20;;;;;;;21.24;44.81;100854.72;4893382;29;20221;-65
2022/08/29 02:17:12;;;;;;;5.83;1.67;;;;;;;21.25;44.82;100858.22;4890046;29;20240;-65
2022/08/29 02:19:40;;;;;;;6.57;1.90;;;;;;;21.21;44.62;100860.50;4891780;29;20658;-65
2022/08/29 02:22:08;;;;;;;6.50;1.50;;;;;;;21.21;44.93;100854.28;4888285;29;20236;-65
2022/08/29 02:24:36;;;;;;;7.60;1.63;;;;;;;21.17;44.61;100861.13;4893507;29;20665;-66
2022/08/29 02:27:05;;;;;;;4.00;1.30;;;;;;;21.17;44.61;100858.41;4896319;29;20300;-66
2022/08/29 02:29:37;;;;;;;5.93;1.70;;;;;;;21.11;44.73;100862.75;4892563;29;20644;-66
2022/08/29 02:32:06;;;;;;;5.73;1.83;;;;;;;21.16;45.02;100862.16;4889318;29;20206;-66
2022/08/29 02:34:34;;;;;;;4.93;1.50;;;;;;;21.08;44.99;100856.97;4891455;29;20365;-65
2022/08/29 02:37:03;;;;;;;5.40;1.43;;;;;;;21.09;44.84;100864.03;4888625;29;20280;-66
2022/08/29 02:39:32;;;;;;;8.40;2.00;;;;;;;21.10;44.90;100854.91;4890849;29;20300;-65
2022/08/29 02:42:00;;;;;;;7.57;1.50;;;;;;;21.11;44.79;100862.75;4896284;29;20651;-65
2022/08/29 02:44:28;;;;;;;7.13;1.50;;;;;;;21.08;45.20;100852.41;4890604;29;20220;-64
2022/08/29 02:46:57;;;;;;;5.87;2.27;;;;;;;21.10;45.06;100861.13;4895243;29;20690;-66
2022/08/29 02:49:25;;;;;;;9.77;2.90;;;;;;;21.06;45.19;100853.63;4893849;29;20221;-65
2022/08/29 02:51:53;;;;;;;9.37;1.77;;;;;;;20.99;45.33;100854.47;4898893;29;20265;-67
2022/08/29 02:54:22;;;;;;;6.03;1.53;;;;;;;20.99;45.13;100853.63;4895620;29;20222;-67
2022/08/29 02:56:53;;;;;;;8.07;2.47;;;;;;;21.00;45.29;100858.84;4916532;29;20634;-67
2022/08/29 02:59:20;;;;;;;6.53;2.20;;;;;;;20.99;45.24;100848.25;4917128;29;20705;-66
2022/08/29 03:01:48;;;;;;;5.13;1.60;;;;;;;20.96;45.12;100859.44;4918190;29;20212;-66
2022/08/29 03:04:17;;;;;;;5.33;1.97;;;;;;;20.94;45.58;100856.94;4919281;29;20208;-66
2022/08/29 03:06:46;;;;;;;7.23;2.60;;;;;;;20.95;45.55;100857.78;4913557;29;20296;-66
2022/08/29 03:09:14;;;;;;;6.00;2.00;;;;;;;20.96;45.11;100854.88;4915634;29;20216;-66
2022/08/29 03:11:41;;;;;;;6.53;2.10;;;;;;;20.91;45.41;100857.38;4915709;29;20208;-66
2022/08/29 03:14:09;;;;;;;7.37;2.00;;;;;;;20.88;45.66;100871.25;4916964;29;20213;-66
2022/08/29 03:16:37;;;;;;;6.47;1.90;;;;;;;20.88;45.66;100878.50;4913603;29;20220;-67
2022/08/29 03:19:05;;;;;;;4.00;2.00;;;;;;;20.85;45.21;100868.97;4915323;29;20205;-67
2022/08/29 03:21:34;;;;;;;6.73;2.00;;;;;;;20.91;45.21;100875.41;4916451;29;20212;-67
2022/08/29 03:24:02;;;;;;;5.63;1.80;;;;;;;20.90;45.32;100866.50;4909787;29;20247;-66
2022/08/29 03:26:30;;;;;;;7.87;2.10;;;;;;;20.89;45.13;100870.22;4906077;29;20233;-67
2022/08/29 03:28:58;;;;;;;6.40;3.10;;;;;;;20.85;45.17;100860.88;4914063;29;20212;-66
2022/08/29 03:31:26;;;;;;;7.70;2.00;;;;;;;20.77;45.47;100865.63;4915821;29;20662;-67
2022/08/29 03:33:53;;;;;;;5.60;1.57;;;;;;;20.77;45.68;100862.94;4913839;29;20243;-67
2022/08/29 03:36:25;;;;;;;6.53;1.80;;;;;;;20.78;45.29;100862.75;4914016;29;20229;-67
2022/08/29 03:38:54;;;;;;;5.50;1.30;;;;;;;20.71;45.69;100867.28;4919342;29;20535;-66
2022/08/29 03:41:24;;;;;;;4.30;1.70;;;;;;;20.70;45.74;100860.25;4914759;29;20349;-66
2022/08/29 03:43:54;;;;;;;7.53;1.80;;;;;;;20.65;45.57;100863.56;4914900;29;20208;-66
2022/08/29 03:46:22;;;;;;;12.23;6.27;;;;;;;20.60;45.79;100860.63;4914944;29;20236;-66
2022/08/29 03:48:50;;;;;;;8.13;2.20;;;;;;;20.67;45.88;100858.78;4918706;29;20223;-66
2022/08/29 03:51:18;;;;;;;7.13;1.80;;;;;;;20.64;45.56;100861.06;4916949;29;20216;-66
2022/08/29 03:53:46;;;;;;;7.80;1.70;;;;;;;20.69;45.51;100855.06;4915599;29;20217;-65
2022/08/29 03:56:16;;;;;;;4.57;2.00;;;;;;;20.72;45.82;100854.66;4917867;29;20675;-65
2022/08/29 03:58:46;;;;;;;6.87;2.10;;;;;;;20.69;45.82;100849.66;4917947;29;20592;-66
2022/08/29 04:01:21;;;;;;;6.03;2.10;;;;;;;20.71;45.87;100855.69;4919516;29;20216;-66
2022/08/29 04:03:49;;;;;;;8.07;2.03;;;;;;;20.65;45.94;100852.78;4919597;29;20240;-65
2022/08/29 04:06:18;;;;;;;10.90;2.90;;;;;;;20.69;45.65;100849.66;4913255;29;20262;-67
2022/08/29 04:08:46;;;;;;;8.17;2.50;;;;;;;20.65;45.66;100858.16;4916549;29;20240;-67
2022/08/29 04:11:17;;;;;;;7.03;1.60;;;;;;;20.56;45.94;100848.63;4914033;29;20224;-67
2022/08/29 04:13:45;;;;;;;4.57;1.57;;;;;;;20.50;46.15;100860.19;4916329;29;20254;-66
2022/08/29 04:16:15;;;;;;;6.47;1.77;;;;;;;20.51;46.20;100852.94;4915185;29;20712;-67
2022/08/29 04:18:43;;;;;;;8.77;1.97;;;;;;;20.52;46.23;100851.91;4912834;29;20213;-67
2022/08/29 04:21:12;;;;;;;7.27;2.07;;;;;;;20.55;46.33;100852.34;4913868;29;20533;-67
2022/08/29 04:23:40;;;;;;;6.63;1.60;;;;;;;20.55;46.23;100856.91;4907282;29;20571;-68
2022/08/29 04:26:14;;;;;;;5.70;1.70;;;;;;;20.53;46.08;100849.00;4905274;29;20232;-66
2022/08/29 04:29:04;;;;;;;6.30;1.70;;;;;;;20.53;45.96;100854.41;4908201;29;20213;-66
2022/08/29 04:31:31;;;;;;;5.50;1.90;;;;;;;20.47;46.36;100860.63;4908899;29;20221;-66
2022/08/29 04:34:00;;;;;;;4.77;1.70;;;;;;;20.45;46.15;100853.75;4911787;29;20222;-66
2022/08/29 04:36:27;;;;;;;5.30;1.80;;;;;;;20.45;45.96;100868.06;4910779;29;20259;-66
2022/08/29 04:38:56;;;;;;;9.97;2.13;;;;;;;20.49;46.16;100866.59;4909960;29;20220;-66
2022/08/29 04:41:24;;;;;;;5.90;1.93;;;;;;;20.48;45.94;100864.13;4908716;29;20562;-66
2022/08/29 04:43:52;;;;;;;9.73;2.43;;;;;;;20.50;45.87;100862.88;4908683;29;20227;-66
2022/08/29 04:46:21;;;;;;;8.27;2.13;;;;;;;20.50;46.35;100876.34;4905419;29;20236;-66
2022/08/29 04:48:51;;;;;;;6.73;2.00;;;;;;;20.47;46.19;100879.47;4907464;29;20212;-66
2022/08/29 04:51:20;;;;;;;9.87;1.90;;;;;;;20.45;46.01;100878.00;4909236;29;20213;-66
2022/08/29 04:53:48;;;;;;;8.50;2.13;;;;;;;20.49;45.89;100879.28;4909911;29;20228;-66
2022/08/29 04:56:16;;;;;;;6.83;1.90;;;;;;;20.42;46.41;100879.22;4911272;29;20347;-66
2022/08/29 04:58:46;;;;;;;8.17;1.90;;;;;;;20.39;46.38;100879.66;4909822;29;20220;-66
2022/08/29 05:01:16;;;;;;;7.13;1.93;;;;;;;20.42;46.60;100879.22;4909540;29;20307;-67
2022/08/29 05:03:46;;;;;;;6.00;1.93;;;;;;;20.41;46.69;100880.25;4910518;29;20204;-67
2022/08/29 05:06:16;;;;;;;9.80;2.07;;;;;;;20.43;46.51;100883.59;4909580;29;20712;-67
2022/08/29 05:08:46;;;;;;;9.47;1.93;;;;;;;20.47;46.03;100882.16;4914388;29;20236;-66
2022/08/29 05:11:27;;;;;;;14.97;2.80;;;;;;;20.46;46.04;100882.38;4909810;29;20205;-65
2022/08/29 05:13:55;;;;;;;6.17;1.80;;;;;;;20.46;46.29;100895.84;4907890;29;20216;-65
2022/08/29 05:16:22;;;;;;;6.77;2.20;;;;;;;20.44;46.27;100897.88;4912200;29;20251;-62
2022/08/29 05:18:52;;;;;;;8.17;2.20;;;;;;;20.37;46.50;100895.19;4912328;29;20216;-62
2022/08/29 05:21:25;;;;;;;7.87;1.83;;;;;;;20.38;46.45;100893.31;4910034;29;21471;-62
2022/08/29 05:23:55;;;;;;;4.83;2.10;;;;;;;20.41;46.70;100900.97;4913489;29;20239;-62
2022/08/29 05:26:23;;;;;;;11.57;2.50;;;;;;;20.45;46.43;100894.16;4909407;29;20220;-62
2022/08/29 05:28:51;;;;;;;7.50;2.00;;;;;;;20.43;46.32;100894.38;4911125;29;20336;-62
2022/08/29 05:31:20;;;;;;;12.03;2.57;;;;;;;20.39;46.75;100890.44;4913742;29;20212;-62
2022/08/29 05:33:49;;;;;;;8.93;2.50;;;;;;;20.46;46.47;100891.28;4902847;29;20212;-62
2022/08/29 05:36:19;;;;;;;7.90;1.70;;;;;;;20.46;46.48;100893.97;4906378;29;20240;-62
2022/08/29 05:38:47;;;;;;;8.73;2.70;;;;;;;20.45;46.23;100889.59;4905943;29;20205;-62
2022/08/29 05:41:15;;;;;;;9.97;2.40;;;;;;;20.40;46.27;100892.09;4910864;29;20230;-62
2022/08/29 05:43:43;;;;;;;8.60;2.37;;;;;;;20.47;46.30;100892.94;4911590;29;21741;-65
2022/08/29 05:46:11;;;;;;;9.30;3.23;;;;;;;20.56;46.36;100896.28;4909201;29;20767;-64
2022/08/29 05:48:41;;;;;;;7.40;2.70;;;;;;;20.61;45.85;100889.25;4911014;29;20587;-63
2022/08/29 05:51:16;;;;;;;6.50;2.00;;;;;;;20.67;45.89;100892.16;4914460;29;20248;-64
2022/08/29 05:53:46;;;;;;;6.67;2.33;;;;;;;20.68;45.81;100891.94;4910876;29;20705;-63
2022/08/29 05:56:21;;;;;;;7.13;2.37;;;;;;;20.67;46.18;100892.97;4913758;29;20246;-63
2022/08/29 05:58:49;;;;;;;9.67;2.40;;;;;;;20.63;46.34;100902.50;4911717;29;20653;-63
2022/08/29 06:01:25;;;;;;;7.87;2.40;;;;;;;20.64;46.07;100907.69;4912155;29;20217;-64
2022/08/29 06:03:53;;;;;;;6.37;2.20;;;;;;;20.67;45.96;100908.34;4913458;29;20291;-64
2022/08/29 06:06:24;;;;;;;8.10;2.53;;;;;;;20.71;46.03;100904.19;4911622;29;20228;-63
2022/08/29 06:08:54;;;;;;;8.03;2.57;;;;;;;20.73;46.00;100912.91;4915603;29;20335;-64
2022/08/29 06:11:25;;;;;;;5.73;2.13;;;;;;;20.76;46.19;100907.13;4909952;29;20216;-64
2022/08/29 06:13:53;;;;;;;9.57;2.73;;;;;;;20.75;46.16;100905.44;4912849;29;20261;-65
2022/08/29 06:16:23;;;;;;;12.27;2.70;;;;;;;20.80;45.89;100905.66;4906031;29;20227;-65
2022/08/29 06:18:51;;;;;;;8.13;2.80;;;;;;;20.84;46.09;100915.00;4910318;29;20201;-65
2022/08/29 06:21:19;;;;;;;9.60;2.93;;;;;;;20.85;45.93;100916.66;4912711;29;20275;-65
2022/08/29 06:23:49;;;;;;;11.70;3.20;;;;;;;20.83;46.10;100910.66;4914471;29;20223;-65
2022/08/29 06:26:19;;;;;;;7.97;2.73;;;;;;;20.91;45.70;100915.84;4915551;29;20216;-65
2022/08/29 06:28:47;;;;;;;9.53;3.00;;;;;;;20.95;45.72;100911.69;4908960;29;20243;-65
2022/08/29 06:31:19;;;;;;;8.83;2.40;;;;;;;20.97;45.47;100920.41;4909412;29;20344;-65
2022/08/29 06:33:49;;;;;;;11.80;3.10;;;;;;;20.97;45.62;100915.00;4912828;29;20742;-65
2022/08/29 06:36:18;;;;;;;8.83;2.97;;;;;;;20.97;45.89;100917.72;4913965;29;20236;-65
2022/08/29 06:38:45;;;;;;;9.57;2.80;;;;;;;21.02;45.32;100920.66;4915935;29;20200;-64
2022/08/29 06:41:16;;;;;;;11.40;2.83;;;;;;;21.05;45.72;100917.50;4897406;29;20506;-66
2022/08/29 06:43:45;;;;;;;9.53;2.87;;;;;;;21.06;45.48;100929.13;4905137;29;20596;-64
2022/08/29 06:46:21;;;;;;;9.40;2.40;;;;;;;21.09;45.80;100921.47;4912271;29;20667;-66
2022/08/29 06:48:49;;;;;;;8.40;2.47;;;;;;;21.04;45.81;100926.63;4908507;29;20229;-66
2022/08/29 06:51:17;;;;;;;14.37;2.90;;;;;;;21.10;45.62;100919.63;4908858;29;20243;-65
2022/08/29 06:53:57;;;;;;;11.13;2.77;;;;;;;21.14;45.76;100921.66;4910722;29;20216;-65
2022/08/29 06:56:25;;;;;;;8.73;2.93;;;;;;;21.15;45.92;100917.13;4911807;29;20610;-65
2022/08/29 06:58:54;;;;;;;10.87;2.40;;;;;;;21.18;45.64;100922.97;4910878;29;20212;-65
2022/08/29 07:01:23;;;;;;;11.80;2.90;;;;;;;21.22;45.56;100929.59;4913186;29;20208;-64
2022/08/29 07:03:53;;;;;;;5.67;2.37;;;;;;;21.22;45.73;100937.69;4916354;29;20225;-64
2022/08/29 07:06:22;;;;;;;8.40;2.50;;;;;;;21.19;46.00;100940.81;4905851;29;20212;-65
2022/08/29 07:08:50;;;;;;;9.00;2.97;;;;;;;21.24;45.54;100932.91;4909801;29;20242;-66
2022/08/29 07:11:23;;;;;;;8.27;2.37;;;;;;;21.30;45.83;100934.78;4913047;29;20437;-68
2022/08/29 07:13:51;;;;;;;8.80;2.60;;;;;;;21.39;45.34;100936.25;4910233;29;20228;-65
2022/08/29 07:16:20;;;;;;;6.63;2.17;;;;;;;21.37;45.71;100938.31;4916201;29;20208;-66
2022/08/29 07:18:50;;;;;;;11.73;3.20;;;;;;;21.43;45.83;100941.22;4917122;29;20260;-66
2022/08/29 07:21:20;;;;;;;9.73;2.40;;;;;;;21.50;45.52;100944.75;4921220;29;20219;-66
2022/08/29 07:23:47;;;;;;;11.93;2.67;;;;;;;21.58;45.21;100939.13;4911731;29;20209;-68
2022/08/29 07:26:17;;;;;;;6.67;2.10;;;;;;;21.66;44.98;100947.03;4917413;29;20515;-65
2022/08/29 07:28:46;;;;;;;7.27;2.40;;;;;;;21.72;45.03;100951.59;4908739;29;20240;-66
2022/08/29 07:31:14;;;;;;;9.60;2.80;;;;;;;21.71;45.27;100945.38;4914326;29;20209;-65
2022/08/29 07:33:44;;;;;;;7.97;2.57;;;;;;;21.80;45.19;100945.16;4911288;29;20224;-67
2022/08/29 07:36:12;;;;;;;7.43;2.80;;;;;;;21.84;45.28;100936.41;4914108;29;20319;-69
2022/08/29 07:38:40;;;;;;;7.53;2.67;;;;;;;21.88;45.05;100940.38;4921275;29;20210;-69
2022/08/29 07:41:13;;;;;;;10.03;2.27;;;;;;;21.95;45.30;100935.78;4918992;29;20682;-70
2022/08/29 07:43:42;;;;;;;10.70;2.93;;;;;;;22.07;44.89;100944.09;4920645;29;20224;-69
2022/08/29 07:46:12;;;;;;;8.37;2.80;;;;;;;22.15;44.93;100930.34;4917126;29;20308;-66
2022/08/29 07:48:41;;;;;;;6.97;2.00;;;;;;;22.24;44.79;100947.16;4913598;29;20228;-66
2022/08/29 07:51:13;;;;;;;6.47;2.00;;;;;;;22.30;44.59;100947.13;4919723;29;20213;-66
2022/08/29 07:53:41;;;;;;;8.80;2.50;;;;;;;22.35;44.47;100947.31;4922423;29;20212;-66
2022/08/29 07:56:11;;;;;;;10.50;2.40;;;;;;;22.41;44.60;100941.06;4908131;29;20247;-65
2022/08/29 07:58:40;;;;;;;8.03;2.40;;;;;;;22.46;44.40;100943.94;4903900;29;20263;-65
2022/08/29 08:01:09;;;;;;;7.17;2.90;;;;;;;22.53;44.16;100943.91;4895884;29;20217;-65
2022/08/29 08:03:49;;;;;;;11.80;2.40;;;;;;;22.63;43.99;100944.28;4898219;29;20637;-66
2022/08/29 08:06:19;;;;;;;10.60;3.43;;;;;;;22.69;44.16;100948.81;4905153;29;20296;-66
2022/08/29 08:08:48;;;;;;;7.27;2.73;;;;;;;22.71;43.91;100954.84;4902101;29;20766;-66
2022/08/29 08:11:18;;;;;;;10.73;2.40;;;;;;;22.77;43.96;100950.50;4893408;29;20620;-66
2022/08/29 08:13:46;;;;;;;8.70;2.57;;;;;;;22.77;43.67;100956.72;4898141;29;20213;-66
2022/08/29 08:16:19;;;;;;;9.33;2.60;;;;;;;22.91;43.66;100951.22;4900376;29;20244;-65
2022/08/29 08:18:47;;;;;;;8.27;2.57;;;;;;;22.99;43.37;100950.97;4897110;29;20635;-66
2022/08/29 08:21:16;;;;;;;9.43;2.70;;;;;;;23.06;43.28;100952.59;4892028;29;20209;-66
2022/08/29 08:23:45;;;;;;;10.20;2.50;;;;;;;23.10;43.57;100948.41;4897125;29;20213;-65
2022/08/29 08:26:13;;;;;;;8.40;2.23;;;;;;;23.13;43.42;100949.84;4893235;29;20272;-66
2022/08/29 08:28:42;;;;;;;10.23;2.87;;;;;;;23.22;43.27;100954.75;4891110;29;20332;-65
2022/08/29 08:31:12;;;;;;;9.43;3.07;;;;;;;23.28;43.17;100947.66;4896147;29;20243;-66
2022/08/29 08:33:42;;;;;;;11.23;3.17;;;;;;;23.36;42.96;100950.09;4897653;29;20353;-66
2022/08/29 08:36:14;;;;;;;9.87;2.53;;;;;;;23.44;42.93;100948.97;4897570;29;20232;-65
2022/08/29 08:38:42;;;;;;;10.40;2.72;;;;;;;23.46;42.79;100949.59;4903135;29;20212;-66
2022/08/29 08:41:22;;;;;;;11.52;2.33;;;;;;;23.49;42.53;100939.16;4901803;29;20223;-67
2022/08/29 08:44:00;;;;;;;9.43;3.17;;;;;;;23.54;42.74;100946.63;4898825;29;20580;-66
2022/08/29 08:46:36;;;;;;;6.80;2.40;;;;;;;23.56;42.71;100942.66;4902002;29;20213;-67
2022/08/29 08:49:07;;;;;;;8.63;2.90;;;;;;;23.53;42.93;100943.09;4894737;29;20637;-66
2022/08/29 08:51:38;;;;;;;10.38;2.47;;;;;;;23.57;43.11;100940.78;4895365;29;20216;-66
2022/08/29 08:54:13;;;;;;;8.67;2.17;;;;;;;23.61;42.88;100948.22;4901826;29;20213;-66
2022/08/29 08:56:45;;;;;;;9.05;3.08;;;;;;;23.70;42.99;100950.66;4915987;29;20342;-66
2022/08/29 08:59:18;;;;;;;9.77;2.40;;;;;;;23.80;42.93;100956.41;4920524;29;20830;-66
2022/08/29 09:01:59;;;;;;;7.25;2.63;;;;;;;23.83;42.50;100951.38;4911688;29;20216;-66
2022/08/29 09:04:46;;;;;;;10.68;2.55;;;;;;;23.87;42.70;100951.72;4914680;29;20202;-65
2022/08/29 09:07:31;;;;;;;13.18;2.88;;;;;;;23.91;42.28;100958.38;4915167;29;20753;-66
2022/08/29 09:10:16;;;;;;;8.90;2.78;;;;;;;24.05;42.46;100969.88;4907097;29;20235;-66
2022/08/29 09:12:57;;;;;;;7.35;3.00;;;;;;;24.10;41.66;100968.16;4914352;29;20216;-66
2022/08/29 09:15:31;;;;;;;8.88;2.83;;;;;;;24.13;41.83;100965.00;4917235;29;20214;-66
2022/08/29 09:18:04;;;;;;;15.80;3.42;;;;;;;24.22;42.17;100966.41;4917592;29;20199;-66
2022/08/29 09:20:35;;;;;;;9.73;2.67;;;;;;;24.47;41.52;100963.59;4915034;29;20303;-66
2022/08/29 09:23:10;;;;;;;5.25;2.40;;;;;;;24.66;41.29;100958.97;4914213;29;20223;-66
2022/08/29 09:25:38;;;;;;;11.93;2.45;;;;;;;24.75;40.70;100955.72;4919152;29;20675;-64
2022/08/29 09:28:09;;;;;;;8.35;2.85;;;;;;;24.72;40.92;100960.75;4914239;29;20205;-65
2022/08/29 09:30:40;;;;;;;8.00;2.40;;;;;;;24.82;40.81;100955.63;4917313;29;20233;-64
2022/08/29 09:33:10;;;;;;;7.05;2.40;;;;;;;24.92;40.43;100955.09;4912213;29;20232;-64
2022/08/29 09:35:41;;;;;;;8.35;2.45;;;;;;;24.99;40.47;100956.66;4908066;29;20607;-65
2022/08/29 09:38:20;;;;;;;7.38;2.40;;;;;;;25.06;40.61;100951.97;4912277;29;20212;-65
2022/08/29 09:40:52;;;;;;;7.03;2.05;;;;;;;25.41;40.00;100943.91;4916154;29;20556;-66
2022/08/29 09:43:27;;;;;;;10.48;2.97;;;;;;;25.55;39.71;100944.50;4911124;29;20220;-65
2022/08/29 09:46:15;;;;;;;12.43;2.72;;;;;;;25.70;39.21;100950.31;4921302;29;20226;-65
2022/08/29 09:48:45;;;;;;;9.45;2.42;;;;;;;25.74;39.47;100946.09;4916939;29;20739;-65
2022/08/29 09:51:20;;;;;;;7.88;2.75;;;;;;;25.73;39.31;100946.31;4912010;29;20295;-65
2022/08/29 09:53:48;;;;;;;7.28;2.70;;;;;;;25.63;39.24;100946.91;4914238;29;20216;-65
2022/08/29 09:56:20;;;;;;;11.07;2.90;;;;;;;25.53;39.41;100935.75;4909999;29;20255;-66
2022/08/29 09:59:00;;;;;;;5.55;2.47;;;;;;;25.42;39.92;100934.69;4913154;29;20209;-66
2022/08/29 10:01:29;;;;;;;11.75;3.10;;;;;;;25.45;40.12;100933.41;4913801;29;20221;-67
2022/08/29 10:03:59;;;;;;;11.07;2.65;;;;;;;25.49;40.11;100929.16;4911954;29;20302;-66
2022/08/29 10:06:31;;;;;;;8.13;2.88;;;;;;;25.74;39.65;100927.06;4911840;29;20690;-65
2022/08/29 10:09:02;;;;;;;9.63;2.83;;;;;;;25.84;39.51;100926.47;4916918;29;20223;-66
2022/08/29 10:11:37;;;;;;;9.88;2.78;;;;;;;25.71;39.72;100927.53;4913710;29;20540;-67
2022/08/29 10:14:13;;;;;;;10.13;2.25;;;;;;;25.61;39.56;100927.28;4911197;29;20212;-66
2022/08/29 10:16:48;;;;;;;7.72;2.35;;;;;;;25.53;39.92;100924.91;4911863;29;20602;-67
2022/08/29 10:19:28;;;;;;;8.20;2.80;;;;;;;25.55;40.06;100925.50;4909633;29;20212;-66
2022/08/29 10:22:14;;;;;;;10.07;2.83;;;;;;;25.51;40.10;100931.66;4909789;29;20211;-66
2022/08/29 10:24:54;;;;;;;6.45;2.53;;;;;;;25.70;39.84;100927.75;4911972;29;20273;-67
2022/08/29 10:27:30;;;;;;;9.45;2.72;;;;;;;25.67;39.84;100920.09;4912822;29;20208;-66
2022/08/29 10:30:08;;;;;;;4.78;2.42;;;;;;;25.63;39.60;100922.47;4912899;29;20228;-65
2022/08/29 10:33:03;;;;;;;6.43;2.20;;;;;;;25.63;38.75;100919.75;4910439;29;20208;-66
2022/08/29 10:35:37;;;;;;;7.03;2.67;;;;;;;25.60;38.87;100914.78;4913054;29;20644;-66
2022/08/29 10:38:12;;;;;;;6.43;2.03;;;;;;;25.52;39.26;100920.53;4913347;29;21171;-65
2022/08/29 10:40:42;;;;;;;8.60;2.35;;;;;;;25.46;39.28;100903.31;4913601;29;20208;-65
2022/08/29 10:43:25;;;;;;;9.63;2.58;;;;;;;25.49;39.24;100912.88;4913725;29;20224;-65
2022/08/29 10:46:16;;;;;;;7.82;2.00;;;;;;;25.58;38.60;100900.59;4912296;29;20321;-66
2022/08/29 10:48:53;;;;;;;13.50;2.78;;;;;;;25.52;38.20;100898.81;4914511;29;20208;-66
2022/08/29 10:51:27;;;;;;;8.48;2.67;;;;;;;25.46;38.47;100899.75;4911072;29;20239;-65
2022/08/29 10:53:58;;;;;;;5.47;2.00;;;;;;;25.69;38.01;100894.34;4912818;29;20204;-66
2022/08/29 10:56:33;;;;;;;6.95;2.63;;;;;;;25.59;38.44;100905.00;4905404;29;20248;-65
2022/08/29 10:59:12;;;;;;;7.10;2.63;;;;;;;25.62;38.33;100896.34;4895897;29;20209;-65
2022/08/29 11:01:45;;;;;;;9.27;2.58;;;;;;;25.59;38.41;100890.56;4896438;29;20295;-65
2022/08/29 11:04:18;;;;;;;8.10;2.55;;;;;;;25.60;38.40;100898.47;4896085;29;20211;-65
2022/08/29 11:06:52;;;;;;;8.00;2.53;;;;;;;25.61;38.63;100891.16;4896992;29;20213;-66
2022/08/29 11:09:25;;;;;;;6.93;3.17;;;;;;;25.62;38.56;100890.09;4897004;29;20300;-66
2022/08/29 11:12:03;;;;;;;6.93;2.25;;;;;;;25.64;38.39;100882.56;4904871;29;20659;-66
2022/08/29 11:14:38;;;;;;;4.10;1.85;;;;;;;25.68;38.11;100889.19;4899023;29;20245;-66
2022/08/29 11:17:20;;;;;;;6.57;2.42;;;;;;;25.88;37.11;100878.75;4897390;29;20223;-67
2022/08/29 11:20:00;;;;;;;8.25;2.60;;;;;;;26.65;35.80;100875.69;4898846;29;20560;-66
2022/08/29 11:22:33;;;;;;;5.93;1.73;;;;;;;27.51;35.08;100877.97;4898683;29;20213;-66
2022/08/29 11:25:09;;;;;;;6.28;1.90;;;;;;;30.27;30.70;100870.22;4894807;29;20633;-66
2022/08/29 11:27:46;;;;;;;10.80;2.40;;;;;;;32.74;26.92;100862.72;4903505;29;20563;-66
2022/08/29 11:30:19;;;;;;;5.63;2.70;;;;;;;33.56;26.14;100863.66;4898422;29;20258;-66
2022/08/29 11:33:00;;;;;;;4.72;2.38;;;;;;;33.87;25.80;100863.31;4901149;29;20231;-66
2022/08/29 11:35:40;;;;;;;8.45;2.25;;;;;;;33.78;25.81;100857.63;4895336;29;20553;-66
2022/08/29 11:38:43;;;;;;;5.22;2.33;;;;;;;34.04;24.92;100851.84;4897372;29;20209;-67
2022/08/29 11:41:30;;;;;;;6.32;1.95;;;;;;;33.44;25.24;100848.66;4893986;29;20215;-66
2022/08/29 11:44:10;;;;;;;7.72;2.47;;;;;;;32.50;26.25;100846.13;4895051;29;20240;-65
2022/08/29 11:46:41;;;;;;;6.50;2.20;;;;;;;31.49;27.69;100846.50;4898912;29;20212;-65